Time;durP1;ratioP1;P1;durP2;ratioP2;P2;SDS_P1;SDS_P2;PMS_P1;PMS_P2;Temp;Humidity;BMP_temperature;BMP_pressure;BME280_temperature;BME280_humidity;BME280_pressure;Samples;Min_cycle;Max_cycle;Signal;HPM_P1;HPM_P2
2023/09/18 00:00:11;;;;;;;12.00;8.23;;;17.90;99.90;;;;;;2091741;28;20037;-78
2023/09/18 00:01:12;;;;;;;12.77;10.85;;;17.90;99.90;;;;;;2090376;28;20040;-78
2023/09/18 00:02:13;;;;;;;11.75;10.40;;;17.90;99.90;;;;;;2089609;28;20036;-77
2023/09/18 00:03:13;;;;;;;12.23;9.48;;;17.90;99.90;;;;;;2086335;28;20044;-77
2023/09/18 00:04:14;;;;;;;12.02;9.18;;;17.90;99.90;;;;;;2092701;28;20061;-78
2023/09/18 00:05:15;;;;;;;9.30;8.02;;;17.90;99.90;;;;;;2091021;28;20230;-78
2023/09/18 00:06:16;;;;;;;9.63;8.13;;;17.90;99.90;;;;;;2084442;28;20044;-78
2023/09/18 00:07:16;;;;;;;9.57;8.52;;;17.80;99.90;;;;;;2096018;28;20032;-77
2023/09/18 00:08:18;;;;;;;10.68;8.25;;;17.90;99.90;;;;;;2092173;28;20559;-78
2023/09/18 00:09:18;;;;;;;12.00;8.10;;;17.90;99.90;;;;;;2088122;28;20480;-77
2023/09/18 00:10:19;;;;;;;8.50;7.70;;;17.90;99.90;;;;;;2092974;28;20099;-78
2023/09/18 00:11:19;;;;;;;10.07;8.00;;;17.90;99.90;;;;;;2095762;28;20104;-78
2023/09/18 00:12:20;;;;;;;9.00;8.10;;;17.90;99.90;;;;;;2090911;28;20028;-77
2023/09/18 00:13:21;;;;;;;9.85;8.30;;;17.80;99.90;;;;;;2083616;28;20028;-77
2023/09/18 00:14:23;;;;;;;9.98;8.38;;;17.80;99.90;;;;;;2090280;28;20536;-77
2023/09/18 00:15:24;;;;;;;11.07;8.25;;;17.80;99.90;;;;;;2090847;28;20020;-76
2023/09/18 00:16:27;;;;;;;9.38;8.07;;;17.80;99.90;;;;;;2085470;28;20484;-76
2023/09/18 00:17:28;;;;;;;9.95;8.02;;;17.80;99.90;;;;;;2088477;28;20025;-76
2023/09/18 00:18:29;;;;;;;9.48;7.95;;;17.80;99.90;;;;;;2091917;28;20012;-76
2023/09/18 00:19:31;;;;;;;9.23;7.65;;;17.80;99.90;;;;;;2086450;28;20094;-75
2023/09/18 00:20:31;;;;;;;10.07;8.27;;;17.80;99.90;;;;;;2089217;28;20274;-76
2023/09/18 00:21:32;;;;;;;10.35;8.40;;;17.80;99.90;;;;;;2090546;28;20244;-77
2023/09/18 00:22:33;;;;;;;10.40;8.40;;;17.80;99.90;;;;;;2086831;28;20029;-77
2023/09/18 00:23:35;;;;;;;11.43;8.50;;;17.80;99.90;;;;;;2089985;28;20029;-77
2023/09/18 00:24:35;;;;;;;8.73;7.70;;;17.80;99.90;;;;;;2087465;28;20041;-77
2023/09/18 00:25:42;;;;;;;10.75;8.52;;;17.80;99.90;;;;;;2091639;28;20036;-77
2023/09/18 00:26:42;;;;;;;9.32;8.10;;;17.80;99.90;;;;;;2092865;28;20063;-77
2023/09/18 00:27:43;;;;;;;12.43;8.40;;;17.80;99.90;;;;;;2089025;28;20049;-76
2023/09/18 00:28:44;;;;;;;9.65;8.02;;;17.70;99.90;;;;;;2096877;28;20025;-77
2023/09/18 00:29:44;;;;;;;10.35;8.23;;;17.70;99.90;;;;;;2096107;28;20027;-77
2023/09/18 00:30:50;;;;;;;9.60;8.25;;;17.70;99.90;;;;;;2083958;28;20474;-77
2023/09/18 00:31:50;;;;;;;9.43;8.20;;;17.70;99.90;;;;;;2088505;28;20036;-77
2023/09/18 00:32:51;;;;;;;9.32;8.30;;;17.70;99.90;;;;;;2097811;28;20592;-77
2023/09/18 00:33:51;;;;;;;9.93;8.73;;;17.70;99.90;;;;;;2082286;28;20028;-75
2023/09/18 00:34:52;;;;;;;9.73;8.30;;;17.70;99.90;;;;;;2083229;28;20035;-78
2023/09/18 00:35:54;;;;;;;9.40;7.85;;;17.70;99.90;;;;;;2089797;28;20056;-78
2023/09/18 00:36:54;;;;;;;11.20;8.40;;;17.70;99.90;;;;;;2090855;28;20047;-78
2023/09/18 00:37:56;;;;;;;9.90;8.38;;;17.70;99.90;;;;;;2091761;28;20040;-78
2023/09/18 00:38:56;;;;;;;9.68;7.90;;;17.70;99.90;;;;;;2088697;28;20270;-77
2023/09/18 00:39:57;;;;;;;9.45;8.45;;;17.70;99.90;;;;;;2082238;28;20028;-75
2023/09/18 00:40:57;;;;;;;10.45;8.45;;;17.70;99.90;;;;;;2077296;28;20044;-76
2023/09/18 00:41:58;;;;;;;9.73;8.52;;;17.60;99.90;;;;;;2089624;28;20466;-77
2023/09/18 00:42:59;;;;;;;13.32;8.73;;;17.70;99.90;;;;;;2093268;28;20387;-76
2023/09/18 00:43:59;;;;;;;9.50;8.60;;;17.70;99.90;;;;;;2077252;28;20017;-78
2023/09/18 00:45:00;;;;;;;9.40;8.23;;;17.70;99.90;;;;;;2089092;28;20033;-76
2023/09/18 00:46:01;;;;;;;9.82;8.40;;;17.70;99.90;;;;;;2084562;28;20546;-78
2023/09/18 00:47:01;;;;;;;9.43;8.40;;;17.70;99.90;;;;;;2085562;28;20036;-76
2023/09/18 00:48:02;;;;;;;9.45;8.40;;;17.70;99.90;;;;;;2078770;28;20044;-76
2023/09/18 00:49:03;;;;;;;9.20;8.02;;;17.70;99.90;;;;;;2065935;28;20021;-76
2023/09/18 00:50:05;;;;;;;11.40;8.60;;;17.70;99.90;;;;;;2080522;28;20547;-77
2023/09/18 00:51:08;;;;;;;10.00;8.73;;;17.60;99.90;;;;;;2087748;28;20496;-76
2023/09/18 00:52:10;;;;;;;9.82;8.05;;;17.70;99.90;;;;;;2078444;28;20060;-77
2023/09/18 00:53:15;;;;;;;10.25;8.55;;;17.70;99.90;;;;;;2085657;28;20040;-77
2023/09/18 00:54:19;;;;;;;9.45;8.27;;;17.70;99.90;;;;;;2083124;28;20025;-76
2023/09/18 00:55:19;;;;;;;9.65;8.55;;;17.70;99.90;;;;;;2095097;28;20024;-76
2023/09/18 00:56:20;;;;;;;9.43;8.38;;;17.70;99.90;;;;;;2094382;28;20024;-75
2023/09/18 00:57:21;;;;;;;9.50;8.50;;;17.70;99.90;;;;;;2074931;28;20037;-76
2023/09/18 00:58:22;;;;;;;10.13;8.90;;;17.70;99.90;;;;;;2090247;28;20029;-77
2023/09/18 00:59:23;;;;;;;9.30;8.40;;;17.70;99.90;;;;;;2089531;28;20040;-76
2023/09/18 01:00:23;;;;;;;9.43;8.43;;;17.70;99.90;;;;;;2081378;28;20024;-76
2023/09/18 01:01:24;;;;;;;8.93;8.02;;;17.70;99.90;;;;;;2075296;28;20508;-75
2023/09/18 01:02:26;;;;;;;9.40;8.45;;;17.70;99.90;;;;;;2074269;28;20129;-77
2023/09/18 01:03:27;;;;;;;9.45;8.50;;;17.70;99.90;;;;;;2080051;28;20058;-76
2023/09/18 01:04:29;;;;;;;9.52;8.52;;;17.70;99.90;;;;;;2088758;28;20033;-76
2023/09/18 01:05:33;;;;;;;8.98;7.72;;;17.70;99.90;;;;;;2079220;28;20037;-76
2023/09/18 01:06:34;;;;;;;9.23;8.20;;;17.70;99.90;;;;;;2086078;28;20028;-77
2023/09/18 01:07:34;;;;;;;9.48;8.48;;;17.70;99.90;;;;;;2091081;28;20067;-76
2023/09/18 01:08:36;;;;;;;9.25;8.20;;;17.80;99.90;;;;;;2084583;28;20055;-76
2023/09/18 01:09:37;;;;;;;13.68;8.60;;;17.80;99.90;;;;;;2093869;28;20043;-74
2023/09/18 01:10:49;;;;;;;8.98;8.07;;;17.80;99.90;;;;;;2093445;28;20737;-77
2023/09/18 01:12:12;;;;;;;9.30;8.27;;;17.80;99.90;;;;;;2083054;28;20029;-66
2023/09/18 01:13:21;;;;;;;10.25;8.75;;;17.80;99.90;;;;;;2091451;28;20114;-65
2023/09/18 01:14:31;;;;;;;9.25;8.35;;;17.80;99.90;;;;;;2083518;28;20041;-64
2023/09/18 01:15:41;;;;;;;10.65;8.63;;;17.80;99.90;;;;;;2090438;28;20075;-65
2023/09/18 01:16:56;;;;;;;9.93;8.10;;;17.80;99.90;;;;;;2085690;28;20028;-63
2023/09/18 01:17:56;;;;;;;10.55;9.40;;;17.80;99.90;;;;;;2092532;28;20531;-64
2023/09/18 01:18:57;;;;;;;9.60;8.48;;;17.70;99.90;;;;;;2089011;28;20035;-65
2023/09/18 01:19:58;;;;;;;9.07;8.23;;;17.80;99.90;;;;;;2091007;28;20020;-64
2023/09/18 01:20:58;;;;;;;11.43;8.77;;;17.70;99.90;;;;;;2085152;28;20045;-65
2023/09/18 01:21:59;;;;;;;9.73;8.60;;;17.70;99.90;;;;;;2080930;28;20500;-64
2023/09/18 01:22:59;;;;;;;9.55;8.63;;;17.70;99.90;;;;;;2086693;28;20036;-64
2023/09/18 01:24:00;;;;;;;9.13;8.15;;;17.70;99.90;;;;;;2092326;28;20044;-64
2023/09/18 01:25:01;;;;;;;9.63;8.63;;;17.70;99.90;;;;;;2077891;28;20246;-66
2023/09/18 01:26:01;;;;;;;9.52;8.57;;;17.70;99.90;;;;;;2090153;28;20165;-64
2023/09/18 01:27:04;;;;;;;10.00;8.50;;;17.70;99.90;;;;;;2090416;28;20492;-64
2023/09/18 01:28:05;;;;;;;9.40;8.43;;;17.70;99.90;;;;;;2086535;28;20460;-64
2023/09/18 01:29:05;;;;;;;9.13;8.23;;;17.60;99.90;;;;;;2086740;28;20067;-64
2023/09/18 01:30:06;;;;;;;10.30;9.30;;;17.60;99.90;;;;;;2092454;28;20036;-64
2023/09/18 01:31:07;;;;;;;11.38;8.77;;;17.70;99.90;;;;;;2087778;28;20040;-64
2023/09/18 01:32:09;;;;;;;10.23;9.07;;;17.70;99.90;;;;;;2086267;28;20029;-64
2023/09/18 01:33:10;;;;;;;10.13;9.10;;;17.70;99.90;;;;;;2093531;28;20135;-64
2023/09/18 01:34:11;;;;;;;10.63;8.70;;;17.70;99.90;;;;;;2096076;28;20055;-65
2023/09/18 01:35:13;;;;;;;9.70;8.43;;;17.70;99.90;;;;;;2086648;28;20029;-65
2023/09/18 01:36:16;;;;;;;9.85;8.90;;;17.60;99.90;;;;;;2087287;28;20044;-65
2023/09/18 01:37:23;;;;;;;9.57;8.63;;;17.60;99.90;;;;;;2090959;28;20212;-64
2023/09/18 01:38:25;;;;;;;9.50;8.60;;;17.60;99.90;;;;;;2089916;28;20081;-66
2023/09/18 01:39:30;;;;;;;9.85;8.77;;;17.60;99.90;;;;;;2094763;28;20036;-65
2023/09/18 01:40:32;;;;;;;9.15;8.23;;;17.60;99.90;;;;;;2085295;28;20574;-65
2023/09/18 01:41:33;;;;;;;9.57;8.68;;;17.60;99.90;;;;;;2088473;28;20128;-63
2023/09/18 01:42:35;;;;;;;9.65;8.65;;;17.60;99.90;;;;;;2095302;28;20029;-64
2023/09/18 01:43:35;;;;;;;9.60;8.68;;;17.60;99.90;;;;;;2094775;28;20028;-64
2023/09/18 01:44:38;;;;;;;10.50;8.45;;;17.60;99.90;;;;;;2089409;28;20120;-64
2023/09/18 01:45:39;;;;;;;9.90;8.90;;;17.50;99.90;;;;;;2088128;28;20462;-64
2023/09/18 01:46:41;;;;;;;10.70;9.45;;;17.50;99.90;;;;;;2093055;28;20551;-64
2023/09/18 01:47:41;;;;;;;9.85;8.88;;;17.60;99.90;;;;;;2091518;28;20034;-64
2023/09/18 01:48:48;;;;;;;9.98;8.85;;;17.60;99.90;;;;;;2089546;28;20086;-64
2023/09/18 01:49:49;;;;;;;10.00;8.77;;;17.50;99.90;;;;;;2092414;28;20036;-65
2023/09/18 01:50:50;;;;;;;10.77;9.27;;;17.60;99.90;;;;;;2092275;28;20020;-64
2023/09/18 01:51:50;;;;;;;10.10;9.10;;;17.60;99.90;;;;;;2087989;28;20028;-65
2023/09/18 01:52:51;;;;;;;9.80;8.60;;;17.50;99.90;;;;;;2084091;28;20523;-63
2023/09/18 01:53:53;;;;;;;9.88;8.70;;;17.50;99.90;;;;;;2084274;28;20585;-65
2023/09/18 01:54:53;;;;;;;9.85;8.80;;;17.50;99.90;;;;;;2076829;28;20040;-65
2023/09/18 01:55:54;;;;;;;9.60;8.70;;;17.50;99.90;;;;;;2083224;28;20052;-65
2023/09/18 01:56:55;;;;;;;10.63;8.82;;;17.50;99.90;;;;;;2083901;28;20021;-65
2023/09/18 01:57:56;;;;;;;10.18;9.05;;;17.50;99.90;;;;;;2076691;28;20036;-64
2023/09/18 01:58:56;;;;;;;10.02;8.82;;;17.50;99.90;;;;;;2084027;28;20029;-64
2023/09/18 01:59:57;;;;;;;9.38;8.48;;;17.50;99.90;;;;;;2089749;28;20029;-64
2023/09/18 02:01:00;;;;;;;10.02;9.02;;;17.50;99.90;;;;;;2095451;28;20114;-65
2023/09/18 02:02:06;;;;;;;10.23;9.23;;;17.50;99.90;;;;;;2092717;28;20029;-66
2023/09/18 02:03:07;;;;;;;10.75;9.65;;;17.50;99.90;;;;;;2086005;28;20032;-66
2023/09/18 02:04:07;;;;;;;10.85;9.80;;;17.50;99.90;;;;;;2092176;28;20097;-66
2023/09/18 02:05:08;;;;;;;11.45;9.40;;;17.50;99.90;;;;;;2088617;28;20029;-65
2023/09/18 02:06:09;;;;;;;12.43;9.30;;;17.50;99.90;;;;;;2090511;28;20428;-64
2023/09/18 02:07:09;;;;;;;12.65;9.07;;;17.50;99.90;;;;;;2093396;28;20769;-64
2023/09/18 02:08:10;;;;;;;9.80;8.82;;;17.50;99.90;;;;;;2087964;28;20025;-65
2023/09/18 02:09:11;;;;;;;10.27;9.20;;;17.50;99.90;;;;;;2088411;28;20483;-64
2023/09/18 02:10:12;;;;;;;10.07;9.02;;;17.50;99.90;;;;;;2086666;28;20041;-64
2023/09/18 02:11:13;;;;;;;9.65;8.43;;;17.50;99.90;;;;;;2092036;28;20029;-64
2023/09/18 02:12:17;;;;;;;10.13;9.13;;;17.50;99.90;;;;;;2093512;28;20042;-64
2023/09/18 02:13:17;;;;;;;10.40;9.30;;;17.50;99.90;;;;;;2091436;28;20078;-64
2023/09/18 02:14:18;;;;;;;9.90;9.00;;;17.50;99.90;;;;;;2085039;28;20087;-64
2023/09/18 02:15:18;;;;;;;10.40;9.30;;;17.50;99.90;;;;;;2075550;28;20025;-64
2023/09/18 02:16:22;;;;;;;10.48;9.38;;;17.50;99.90;;;;;;2075734;28;20101;-65
2023/09/18 02:17:23;;;;;;;10.48;9.38;;;17.50;99.90;;;;;;2084494;28;20040;-64
2023/09/18 02:18:23;;;;;;;12.55;9.75;;;17.50;99.90;;;;;;2084609;28;20033;-64
2023/09/18 02:19:24;;;;;;;10.57;9.55;;;17.50;99.90;;;;;;2084982;28;20025;-65
2023/09/18 02:20:24;;;;;;;10.38;9.15;;;17.50;99.90;;;;;;2092864;28;20111;-66
2023/09/18 02:21:25;;;;;;;10.48;9.25;;;17.50;99.90;;;;;;2096254;28;20024;-66
2023/09/18 02:22:26;;;;;;;10.27;9.27;;;17.50;99.90;;;;;;2085516;28;20086;-67
2023/09/18 02:23:26;;;;;;;10.80;9.70;;;17.50;99.90;;;;;;2091515;28;20503;-65
2023/09/18 02:24:27;;;;;;;10.68;9.57;;;17.50;99.90;;;;;;2084472;28;20558;-65
2023/09/18 02:25:28;;;;;;;10.15;9.15;;;17.50;99.90;;;;;;2084352;28;20036;-66
2023/09/18 02:26:30;;;;;;;10.30;9.20;;;17.50;99.90;;;;;;2085556;28;20423;-65
2023/09/18 02:27:32;;;;;;;10.55;9.35;;;17.50;99.90;;;;;;2086152;28;20091;-66
2023/09/18 02:28:32;;;;;;;11.80;9.20;;;17.50;99.90;;;;;;2083699;28;20096;-64
2023/09/18 02:29:33;;;;;;;10.20;9.20;;;17.50;99.90;;;;;;2087360;28;20035;-65
2023/09/18 02:30:34;;;;;;;10.50;9.25;;;17.50;99.90;;;;;;2095118;28;20051;-65
2023/09/18 02:31:35;;;;;;;10.48;9.30;;;17.50;99.90;;;;;;2086594;28;20033;-65
2023/09/18 02:32:36;;;;;;;10.38;9.38;;;17.40;99.90;;;;;;2088944;28;20032;-64
2023/09/18 02:33:38;;;;;;;10.98;9.43;;;17.50;99.90;;;;;;2092090;28;20103;-65
2023/09/18 02:34:38;;;;;;;10.40;9.30;;;17.50;99.90;;;;;;2093614;28;20506;-66
2023/09/18 02:35:40;;;;;;;10.13;9.13;;;17.50;99.90;;;;;;2079847;28;20030;-65
2023/09/18 02:36:41;;;;;;;9.88;8.98;;;17.40;99.90;;;;;;2086925;28;20075;-64
2023/09/18 02:37:41;;;;;;;9.45;8.55;;;17.40;99.90;;;;;;2083282;28;20612;-65
2023/09/18 02:38:43;;;;;;;10.63;9.43;;;17.40;99.90;;;;;;2080822;28;20033;-65
2023/09/18 02:39:44;;;;;;;11.48;9.70;;;17.40;99.90;;;;;;2093466;28;20118;-65
2023/09/18 02:40:44;;;;;;;10.40;9.35;;;17.40;99.90;;;;;;2086381;28;20021;-64
2023/09/18 02:41:45;;;;;;;10.27;9.15;;;17.40;99.90;;;;;;2083696;28;20048;-64
2023/09/18 02:42:45;;;;;;;10.77;9.68;;;17.30;99.90;;;;;;2086651;28;20033;-64
2023/09/18 02:43:46;;;;;;;10.55;9.55;;;17.30;99.90;;;;;;2085485;28;20501;-65
2023/09/18 02:44:47;;;;;;;10.02;9.02;;;17.30;99.90;;;;;;2084436;28;20032;-64
2023/09/18 02:45:47;;;;;;;10.63;9.50;;;17.30;99.90;;;;;;2090814;28;20672;-65
2023/09/18 02:46:48;;;;;;;10.32;9.32;;;17.30;99.90;;;;;;2094935;28;20031;-64
2023/09/18 02:47:48;;;;;;;10.40;9.30;;;17.30;99.90;;;;;;2076561;28;20512;-65
2023/09/18 02:48:49;;;;;;;10.48;9.38;;;17.30;99.90;;;;;;2083806;28;20028;-65
2023/09/18 02:49:50;;;;;;;10.38;9.38;;;17.30;99.90;;;;;;2091315;28;20053;-64
2023/09/18 02:50:51;;;;;;;10.88;9.73;;;17.30;99.90;;;;;;2084032;28;20032;-65
2023/09/18 02:51:52;;;;;;;10.38;9.32;;;17.30;99.90;;;;;;2083615;28;20032;-65
2023/09/18 02:52:53;;;;;;;12.63;9.32;;;17.30;99.90;;;;;;2083773;28;20531;-65
2023/09/18 02:53:54;;;;;;;10.10;9.10;;;17.30;99.90;;;;;;2083928;28;20029;-70
2023/09/18 02:54:54;;;;;;;10.98;9.80;;;17.30;99.90;;;;;;2083588;28;20580;-71
2023/09/18 02:55:56;;;;;;;10.40;9.40;;;17.30;99.90;;;;;;2087565;28;20480;-74
2023/09/18 02:56:57;;;;;;;11.00;9.75;;;17.30;99.90;;;;;;2085342;28;20048;-80
2023/09/18 02:57:58;;;;;;;10.55;9.55;;;17.30;99.90;;;;;;2092451;28;20525;-68
2023/09/18 02:58:59;;;;;;;10.27;9.27;;;17.30;99.90;;;;;;2089277;28;20021;-67
2023/09/18 03:00:00;;;;;;;10.93;9.88;;;17.30;99.90;;;;;;2084908;28;20480;-67
2023/09/18 03:01:03;;;;;;;11.13;9.55;;;17.30;99.90;;;;;;2082136;28;20021;-68
2023/09/18 03:02:04;;;;;;;10.40;9.40;;;17.20;99.90;;;;;;2081055;28;20187;-68
2023/09/18 03:03:04;;;;;;;12.70;9.85;;;17.30;99.90;;;;;;2091948;28;20020;-68
2023/09/18 03:04:05;;;;;;;10.50;9.40;;;17.30;99.90;;;;;;2078279;28;20022;-68
2023/09/18 03:05:06;;;;;;;10.77;9.68;;;17.30;99.90;;;;;;2094563;28;20019;-68
2023/09/18 03:06:07;;;;;;;10.95;9.57;;;17.20;99.90;;;;;;2096001;28;20028;-68
2023/09/18 03:07:08;;;;;;;10.43;9.43;;;17.30;99.90;;;;;;2089441;28;20574;-68
2023/09/18 03:08:10;;;;;;;11.07;9.95;;;17.30;99.90;;;;;;2083498;28;20079;-68
2023/09/18 03:09:11;;;;;;;10.77;9.63;;;17.30;99.90;;;;;;2085338;28;20516;-69
2023/09/18 03:10:14;;;;;;;11.13;9.82;;;17.30;99.90;;;;;;2093594;28;20028;-68
2023/09/18 03:11:16;;;;;;;10.93;9.90;;;17.30;99.90;;;;;;2086424;28;20464;-67
2023/09/18 03:12:17;;;;;;;10.48;9.38;;;17.30;99.90;;;;;;2084107;28;20070;-67
2023/09/18 03:13:18;;;;;;;11.63;9.55;;;17.30;99.90;;;;;;2086087;28;20035;-67
2023/09/18 03:14:19;;;;;;;10.25;9.25;;;17.30;99.90;;;;;;2086600;28;20047;-68
2023/09/18 03:15:19;;;;;;;11.02;9.93;;;17.30;99.90;;;;;;2084819;28;20021;-67
2023/09/18 03:16:20;;;;;;;11.23;10.13;;;17.40;99.90;;;;;;2082794;28;20017;-68
2023/09/18 03:17:21;;;;;;;11.07;9.98;;;17.40;99.90;;;;;;2074148;28;20031;-68
2023/09/18 03:18:22;;;;;;;11.57;10.40;;;17.40;99.90;;;;;;2091469;28;20459;-68
2023/09/18 03:19:24;;;;;;;10.35;9.30;;;17.50;99.90;;;;;;2091392;28;20025;-68
2023/09/18 03:20:27;;;;;;;10.85;9.75;;;17.50;99.90;;;;;;2091055;28;20021;-68
2023/09/18 03:21:28;;;;;;;11.15;10.05;;;17.50;99.90;;;;;;2079233;28;20021;-67
2023/09/18 03:22:29;;;;;;;11.20;10.18;;;17.50;99.90;;;;;;2079133;28;20029;-69
2023/09/18 03:23:30;;;;;;;10.55;9.55;;;17.60;99.90;;;;;;2083099;28;20535;-69
2023/09/18 03:24:30;;;;;;;10.82;9.75;;;17.60;99.90;;;;;;2083495;28;20021;-68
2023/09/18 03:25:31;;;;;;;11.00;9.88;;;17.60;99.90;;;;;;2090949;28;20040;-68
2023/09/18 03:26:32;;;;;;;10.02;9.05;;;17.60;99.90;;;;;;2091068;28;20032;-67
2023/09/18 03:27:32;;;;;;;10.48;9.40;;;17.60;99.90;;;;;;2085178;28;20024;-68
2023/09/18 03:28:33;;;;;;;11.20;9.95;;;17.60;99.90;;;;;;2093196;28;20028;-68
2023/09/18 03:29:34;;;;;;;10.13;9.13;;;17.60;99.90;;;;;;2082357;28;20052;-69
2023/09/18 03:30:36;;;;;;;13.93;9.98;;;17.60;99.90;;;;;;2085895;28;20017;-70
2023/09/18 03:31:37;;;;;;;10.07;9.15;;;17.60;99.90;;;;;;2091850;28;20067;-68
2023/09/18 03:32:38;;;;;;;10.95;9.50;;;17.60;99.90;;;;;;2090793;28;20031;-68
2023/09/18 03:33:38;;;;;;;10.55;9.55;;;17.60;99.90;;;;;;2089291;28;20040;-69
2023/09/18 03:34:39;;;;;;;10.48;9.48;;;17.60;99.90;;;;;;2083114;28;20514;-68
2023/09/18 03:35:49;;;;;;;10.45;9.45;;;17.60;99.90;;;;;;2086942;28;20077;-68
2023/09/18 03:36:51;;;;;;;10.77;9.75;;;17.60;99.90;;;;;;2087753;28;20024;-68
2023/09/18 03:37:53;;;;;;;11.85;10.40;;;17.60;99.90;;;;;;2084402;28;20506;-68
2023/09/18 03:38:55;;;;;;;11.10;9.90;;;17.60;99.90;;;;;;2086236;28;20060;-70
2023/09/18 03:39:56;;;;;;;10.98;9.88;;;17.60;99.90;;;;;;2071302;28;20033;-69
2023/09/18 03:41:00;;;;;;;11.10;9.93;;;17.70;99.90;;;;;;2081256;28;20116;-67
2023/09/18 03:42:01;;;;;;;10.90;9.80;;;17.60;99.90;;;;;;2086749;28;20121;-68
2023/09/18 03:43:02;;;;;;;11.05;9.65;;;17.60;99.90;;;;;;2093680;28;20066;-68
2023/09/18 03:44:03;;;;;;;10.80;9.70;;;17.60;99.90;;;;;;2087064;28;20056;-68
2023/09/18 03:45:06;;;;;;;11.13;10.05;;;17.60;99.90;;;;;;2091427;28;20016;-68
2023/09/18 03:46:07;;;;;;;10.88;9.77;;;17.60;99.90;;;;;;2086419;28;20056;-68
2023/09/18 03:47:14;;;;;;;11.15;9.95;;;17.60;99.90;;;;;;2091364;28;20028;-68
2023/09/18 03:48:14;;;;;;;10.82;9.80;;;17.60;99.90;;;;;;2087961;28;20124;-70
2023/09/18 03:49:17;;;;;;;10.18;9.10;;;17.60;99.90;;;;;;2089418;28;23126;-68
2023/09/18 03:50:19;;;;;;;10.18;9.27;;;17.60;99.90;;;;;;2092212;28;20033;-68
2023/09/18 03:51:20;;;;;;;11.15;10.02;;;17.60;99.90;;;;;;2089083;28;20325;-68
2023/09/18 03:52:20;;;;;;;11.40;9.85;;;17.60;99.90;;;;;;2084968;28;20025;-69
2023/09/18 03:53:21;;;;;;;10.77;9.73;;;17.60;99.90;;;;;;2091910;28;20519;-68
2023/09/18 03:54:22;;;;;;;11.65;10.55;;;17.50;99.90;;;;;;2089074;28;20166;-68
2023/09/18 03:55:22;;;;;;;12.15;9.80;;;17.50;99.90;;;;;;2090713;28;20032;-69
2023/09/18 03:56:23;;;;;;;12.68;10.30;;;17.50;99.90;;;;;;2076863;28;20029;-68
2023/09/18 03:57:24;;;;;;;11.98;9.80;;;17.50;99.90;;;;;;2082598;28;20033;-68
2023/09/18 03:58:24;;;;;;;11.45;10.27;;;17.50;99.90;;;;;;2082867;28;20071;-73
2023/09/18 03:59:25;;;;;;;11.25;10.05;;;17.50;99.90;;;;;;2078652;28;20554;-74
2023/09/18 04:00:26;;;;;;;12.00;10.27;;;17.50;99.90;;;;;;2083476;28;20033;-74
2023/09/18 04:01:27;;;;;;;11.35;9.95;;;17.50;99.90;;;;;;2086730;28;20479;-73
2023/09/18 04:02:27;;;;;;;12.25;9.70;;;17.50;99.90;;;;;;2095234;28;20032;-73
2023/09/18 04:03:28;;;;;;;14.55;10.18;;;17.40;99.90;;;;;;2087624;28;20502;-72
2023/09/18 04:04:28;;;;;;;12.52;10.63;;;17.50;99.90;;;;;;2091686;28;20571;-74
2023/09/18 04:05:29;;;;;;;13.07;10.30;;;17.50;99.90;;;;;;2088061;28;20124;-74
2023/09/18 04:06:41;;;;;;;11.85;10.55;;;17.60;99.90;;;;;;2083007;28;20021;-74
2023/09/18 04:07:45;;;;;;;11.10;10.00;;;17.60;99.90;;;;;;2085883;28;20024;-73
2023/09/18 04:08:46;;;;;;;12.23;10.30;;;17.60;99.90;;;;;;2083661;28;20468;-71
2023/09/18 04:09:47;;;;;;;11.40;10.20;;;17.60;99.90;;;;;;2087790;28;20025;-70
2023/09/18 04:10:48;;;;;;;12.82;10.68;;;17.60;99.90;;;;;;2090910;28;20541;-70
2023/09/18 04:11:48;;;;;;;17.48;14.23;;;17.60;99.90;;;;;;2084955;28;20020;-71
2023/09/18 04:12:50;;;;;;;16.10;13.68;;;17.60;99.90;;;;;;2085116;28;20028;-71
2023/09/18 04:13:51;;;;;;;12.38;11.00;;;17.60;99.90;;;;;;2085545;28;20389;-71
2023/09/18 04:14:52;;;;;;;12.05;10.75;;;17.70;99.90;;;;;;2092443;28;20099;-71
2023/09/18 04:15:56;;;;;;;11.85;10.15;;;17.60;99.90;;;;;;2091551;28;20490;-72
2023/09/18 04:16:57;;;;;;;12.23;10.93;;;17.60;99.90;;;;;;2087467;28;20059;-72
2023/09/18 04:17:58;;;;;;;12.27;10.27;;;17.60;99.90;;;;;;2086737;28;20078;-71
2023/09/18 04:18:59;;;;;;;12.25;10.02;;;17.60;99.90;;;;;;2091080;28;20570;-73
2023/09/18 04:19:59;;;;;;;13.10;10.23;;;17.60;99.90;;;;;;2086550;28;20036;-70
2023/09/18 04:21:00;;;;;;;12.88;10.32;;;17.60;99.90;;;;;;2070385;28;20112;-71
2023/09/18 04:22:01;;;;;;;13.07;10.18;;;17.60;99.90;;;;;;2082711;28;20312;-71
2023/09/18 04:23:21;;;;;;;14.15;9.98;;;17.60;99.90;;;;;;2091328;28;20036;-72
2023/09/18 04:24:23;;;;;;;12.10;10.32;;;17.60;99.90;;;;;;2084409;28;20399;-72
2023/09/18 04:25:23;;;;;;;12.05;10.32;;;17.60;99.90;;;;;;2082769;28;20033;-71
2023/09/18 04:26:29;;;;;;;12.40;10.52;;;17.70;99.90;;;;;;2075857;28;20029;-71
2023/09/18 04:27:30;;;;;;;11.75;10.38;;;17.70;99.90;;;;;;2087435;28;20487;-71
2023/09/18 04:28:30;;;;;;;11.48;10.10;;;17.70;99.90;;;;;;2091202;28;20029;-71
2023/09/18 04:29:31;;;;;;;11.40;10.25;;;17.80;99.90;;;;;;2094591;28;20055;-71
2023/09/18 04:30:33;;;;;;;13.25;10.60;;;17.80;99.90;;;;;;2078819;28;20044;-71
2023/09/18 04:31:34;;;;;;;12.63;10.27;;;17.80;99.90;;;;;;2082243;28;20025;-73
2023/09/18 04:32:37;;;;;;;11.38;10.25;;;17.80;99.90;;;;;;2082512;28;20020;-72
2023/09/18 04:33:37;;;;;;;14.73;10.40;;;17.90;99.90;;;;;;2088020;28;20086;-72
2023/09/18 04:34:39;;;;;;;11.27;10.05;;;17.90;99.90;;;;;;2090740;28;20021;-72
2023/09/18 04:35:40;;;;;;;12.35;10.25;;;17.90;99.90;;;;;;2085479;28;20576;-72
2023/09/18 04:36:43;;;;;;;12.68;10.00;;;17.90;99.90;;;;;;2078288;28;20031;-71
2023/09/18 04:37:44;;;;;;;14.98;10.07;;;17.90;99.90;;;;;;2087862;28;20036;-70
2023/09/18 04:38:45;;;;;;;11.52;10.00;;;17.90;99.90;;;;;;2082326;28;20020;-70
2023/09/18 04:39:46;;;;;;;12.25;10.70;;;17.90;99.90;;;;;;2089598;28;20054;-71
2023/09/18 04:40:47;;;;;;;11.73;10.52;;;17.90;99.90;;;;;;2084756;28;20065;-71
2023/09/18 04:41:48;;;;;;;12.13;10.32;;;17.90;99.90;;;;;;2084129;28;20427;-71
2023/09/18 04:42:49;;;;;;;11.25;9.93;;;17.90;99.90;;;;;;2082549;28;20044;-71
2023/09/18 04:43:50;;;;;;;12.15;9.85;;;17.90;99.90;;;;;;2086461;28;20580;-71
2023/09/18 04:44:51;;;;;;;13.38;10.85;;;17.90;99.90;;;;;;2090623;28;20039;-70
2023/09/18 04:45:52;;;;;;;13.85;11.40;;;17.80;99.90;;;;;;2087838;28;20033;-71
2023/09/18 04:46:52;;;;;;;11.07;9.95;;;17.80;99.90;;;;;;2081105;28;20048;-71
2023/09/18 04:47:54;;;;;;;11.05;9.95;;;17.80;99.90;;;;;;2074298;28;20029;-70
2023/09/18 04:48:55;;;;;;;16.45;13.55;;;17.80;99.90;;;;;;2080271;28;20552;-77
2023/09/18 04:49:55;;;;;;;11.98;10.77;;;17.80;99.90;;;;;;2086512;28;20032;-70
2023/09/18 04:50:57;;;;;;;12.38;10.73;;;17.80;99.90;;;;;;2084631;28;20570;-71
2023/09/18 04:51:58;;;;;;;12.73;10.52;;;17.80;99.90;;;;;;2102812;28;20074;-71
2023/09/18 04:52:58;;;;;;;11.52;10.32;;;17.80;99.90;;;;;;2090812;28;20503;-70
2023/09/18 04:54:00;;;;;;;12.00;10.73;;;17.80;99.90;;;;;;2082804;28;20070;-70
2023/09/18 04:55:01;;;;;;;13.90;10.98;;;17.90;99.90;;;;;;2085276;28;20035;-70
2023/09/18 04:56:03;;;;;;;11.88;10.68;;;17.90;99.90;;;;;;2090531;28;20035;-69
2023/09/18 04:57:05;;;;;;;14.02;11.10;;;17.90;99.90;;;;;;2083309;28;20025;-70
2023/09/18 04:58:06;;;;;;;11.95;10.48;;;17.80;99.90;;;;;;2082543;28;20032;-70
2023/09/18 04:59:07;;;;;;;11.80;10.60;;;17.90;99.90;;;;;;2085196;28;20028;-69
2023/09/18 05:00:09;;;;;;;12.32;11.05;;;17.90;99.90;;;;;;2077759;28;20546;-70
2023/09/18 05:01:10;;;;;;;12.88;11.50;;;17.90;99.90;;;;;;2081510;28;20120;-69
2023/09/18 05:02:13;;;;;;;14.05;10.40;;;17.90;99.90;;;;;;2078562;28;20022;-70
2023/09/18 05:03:13;;;;;;;11.27;10.25;;;17.90;99.90;;;;;;2083836;28;20644;-68
2023/09/18 05:04:14;;;;;;;11.52;10.43;;;17.90;99.90;;;;;;2087122;28;20040;-68
2023/09/18 05:05:14;;;;;;;11.82;10.63;;;17.90;99.90;;;;;;2085303;28;20045;-68
2023/09/18 05:06:16;;;;;;;12.35;10.90;;;17.90;99.90;;;;;;2078276;28;20607;-68
2023/09/18 05:07:17;;;;;;;12.35;11.05;;;17.90;99.90;;;;;;2084008;28;20028;-69
2023/09/18 05:08:17;;;;;;;12.63;11.02;;;17.90;99.90;;;;;;2087927;28;20037;-68
2023/09/18 05:09:18;;;;;;;11.85;10.65;;;17.90;99.90;;;;;;2091528;28;20434;-69
2023/09/18 05:10:19;;;;;;;11.75;10.55;;;17.90;99.90;;;;;;2086406;28;20094;-68
2023/09/18 05:11:20;;;;;;;12.30;11.10;;;17.90;99.90;;;;;;2088892;28;20179;-68
2023/09/18 05:12:22;;;;;;;12.18;10.75;;;18.00;99.90;;;;;;2093383;28;20387;-68
2023/09/18 05:13:22;;;;;;;11.20;9.95;;;18.00;99.90;;;;;;2087825;28;20158;-69
2023/09/18 05:14:23;;;;;;;11.43;10.07;;;18.00;99.90;;;;;;2086388;28;20033;-68
2023/09/18 05:15:26;;;;;;;12.52;10.70;;;18.00;99.90;;;;;;2090684;28;20961;-69